createdAt,value
2023-08-15T00:00:28.123Z,6.40
2023-08-15T00:01:21.547Z,7.50
2023-08-15T00:01:55.024Z,7.20
2023-08-15T00:02:28.575Z,7.00
2023-08-15T00:03:02.171Z,7.40
2023-08-15T00:03:35.912Z,6.90
2023-08-15T00:04:09.480Z,7.20
2023-08-15T00:04:43.172Z,7.50
2023-08-15T00:05:17.077Z,7.10
2023-08-15T00:06:11.276Z,6.80
2023-08-15T00:06:44.754Z,6.70
2023-08-15T00:07:18.679Z,7.00
2023-08-15T00:07:52.509Z,7.20
2023-08-15T00:08:26.152Z,7.20
2023-08-15T00:09:01.221Z,6.80
2023-08-15T00:09:34.715Z,7.40
2023-08-15T00:10:08.738Z,7.10
2023-08-15T00:10:42.268Z,7.40
2023-08-15T00:11:15.758Z,6.90
2023-08-15T00:11:49.067Z,6.80
2023-08-15T00:12:22.407Z,6.60
2023-08-15T00:12:57.910Z,6.30
2023-08-15T00:13:35.179Z,6.70
2023-08-15T00:14:11.118Z,6.80
2023-08-15T00:14:44.637Z,6.40
2023-08-15T00:15:19.366Z,6.30
2023-08-15T00:15:52.882Z,6.60
2023-08-15T00:16:26.337Z,6.40
2023-08-15T00:16:59.905Z,6.70
2023-08-15T00:17:33.454Z,6.60
2023-08-15T00:18:07.918Z,6.60
2023-08-15T00:18:44.182Z,6.40
2023-08-15T00:19:17.580Z,6.60
2023-08-15T00:19:51.254Z,6.40
2023-08-15T00:20:27.312Z,6.40
2023-08-15T00:21:00.765Z,6.50
2023-08-15T00:21:34.191Z,7.10
2023-08-15T00:22:07.767Z,6.50
2023-08-15T00:22:41.328Z,6.40
2023-08-15T00:23:15.632Z,6.90
2023-08-15T00:23:49.103Z,6.70
2023-08-15T00:24:22.544Z,6.30
2023-08-15T00:24:55.866Z,6.60
2023-08-15T00:25:29.247Z,6.60
2023-08-15T00:26:03.004Z,6.40
2023-08-15T00:26:36.629Z,6.10
2023-08-15T00:27:10.198Z,6.40
2023-08-15T00:27:43.611Z,6.40
2023-08-15T00:28:16.977Z,6.80
2023-08-15T00:28:50.363Z,6.60
2023-08-15T00:29:23.734Z,6.20
2023-08-15T00:29:57.017Z,7.10
2023-08-15T00:30:33.921Z,6.90
2023-08-15T00:31:08.179Z,6.60
2023-08-15T00:31:41.633Z,6.70
2023-08-15T00:32:14.992Z,6.70
2023-08-15T00:32:50.194Z,6.50
2023-08-15T00:33:23.470Z,6.60
2023-08-15T00:33:56.841Z,6.30
2023-08-15T00:34:30.166Z,6.80
2023-08-15T00:35:07.622Z,6.50
2023-08-15T00:35:44.093Z,6.50
2023-08-15T00:36:18.907Z,6.40
2023-08-15T00:36:52.253Z,6.50
2023-08-15T00:37:25.561Z,6.40
2023-08-15T00:37:58.893Z,6.50
2023-08-15T00:38:32.319Z,6.40
2023-08-15T00:39:05.740Z,6.10
2023-08-15T00:39:41.883Z,6.70
2023-08-15T00:40:16.736Z,6.60
2023-08-15T00:40:50.069Z,6.80
2023-08-15T00:41:23.409Z,7.00
2023-08-15T00:41:56.806Z,6.50
2023-08-15T00:42:30.138Z,6.70
2023-08-15T00:43:04.827Z,6.60
2023-08-15T00:43:39.186Z,6.20
2023-08-15T00:44:12.457Z,6.30
2023-08-15T00:44:45.939Z,6.30
2023-08-15T00:45:23.053Z,6.50
2023-08-15T00:46:01.120Z,6.60
2023-08-15T00:46:34.961Z,6.20
2023-08-15T00:47:09.003Z,6.40
2023-08-15T00:47:42.673Z,6.70
2023-08-15T00:48:18.271Z,6.40
2023-08-15T00:48:52.022Z,6.50
2023-08-15T00:49:25.414Z,6.70
2023-08-15T00:49:59.821Z,6.50
2023-08-15T00:50:33.697Z,6.10
2023-08-15T00:51:09.379Z,6.80
2023-08-15T00:51:43.245Z,6.60
2023-08-15T00:52:19.805Z,6.40
2023-08-15T00:52:54.350Z,6.50
2023-08-15T00:53:30.092Z,7.00
2023-08-15T00:54:03.602Z,6.90
2023-08-15T00:54:37.558Z,6.30
2023-08-15T00:55:11.279Z,6.50
2023-08-15T00:55:46.947Z,6.50
2023-08-15T00:56:21.870Z,6.50
2023-08-15T00:56:55.405Z,6.60
2023-08-15T00:57:28.901Z,6.40
2023-08-15T00:58:02.324Z,6.40
2023-08-15T00:58:36.493Z,6.80
2023-08-15T00:59:10.041Z,6.40
2023-08-15T00:59:44.965Z,6.30
2023-08-15T01:00:20.635Z,6.30
2023-08-15T01:00:54.142Z,6.50
2023-08-15T01:01:29.950Z,6.20
2023-08-15T01:02:04.089Z,6.30
2023-08-15T01:02:38.082Z,6.50
2023-08-15T01:03:13.889Z,6.60
2023-08-15T01:03:48.187Z,6.10
2023-08-15T01:04:21.978Z,7.00
2023-08-15T01:04:55.604Z,6.60
2023-08-15T01:05:30.599Z,7.30
2023-08-15T01:06:04.207Z,6.80
2023-08-15T01:06:37.724Z,7.00
2023-08-15T01:07:11.741Z,7.10
2023-08-15T01:07:45.925Z,6.70
2023-08-15T01:08:19.488Z,7.40
2023-08-15T01:08:53.767Z,7.00
2023-08-15T01:09:27.057Z,7.20
2023-08-15T01:10:00.434Z,7.00
2023-08-15T01:10:34.000Z,6.80
2023-08-15T01:11:07.438Z,7.10
2023-08-15T01:12:07.561Z,6.70
2023-08-15T01:12:45.682Z,6.50
2023-08-15T01:13:31.125Z,6.30
2023-08-15T01:14:09.832Z,6.60
2023-08-15T01:14:56.541Z,6.40
2023-08-15T01:15:33.555Z,6.30
2023-08-15T01:16:12.681Z,6.60
2023-08-15T01:16:49.674Z,6.50
2023-08-15T01:17:32.854Z,7.00
2023-08-15T01:18:14.422Z,6.40
2023-08-15T01:19:48.286Z,6.70
2023-08-15T01:20:34.685Z,6.40
2023-08-15T01:21:08.887Z,6.60
2023-08-15T01:21:49.290Z,6.60
2023-08-15T01:22:29.561Z,7.00
2023-08-15T01:23:07.653Z,6.60
2023-08-15T01:23:45.010Z,7.00
2023-08-15T01:24:18.648Z,7.00
2023-08-15T01:24:52.645Z,6.70
2023-08-15T01:25:27.301Z,6.90
2023-08-15T01:26:00.759Z,6.80
2023-08-15T01:26:39.599Z,6.90
2023-08-15T01:27:13.734Z,7.10
2023-08-15T01:27:47.115Z,7.00
2023-08-15T01:28:20.540Z,6.80
2023-08-15T01:28:54.658Z,7.00
2023-08-15T01:29:28.112Z,7.10
2023-08-15T01:30:02.075Z,6.90
2023-08-15T01:30:35.774Z,6.80
2023-08-15T01:31:23.892Z,6.80
2023-08-15T01:32:13.765Z,7.30
2023-08-15T01:32:54.392Z,6.80
2023-08-15T01:33:35.770Z,7.00
2023-08-15T01:34:18.856Z,7.20
2023-08-15T01:35:00.335Z,7.20
2023-08-15T01:35:44.839Z,7.40
2023-08-15T01:36:26.375Z,7.20
2023-08-15T01:37:10.417Z,7.50
2023-08-15T01:37:46.406Z,7.20
2023-08-15T01:38:55.775Z,7.20
2023-08-15T01:39:32.879Z,7.50
2023-08-15T01:40:10.647Z,7.60
2023-08-15T01:40:49.162Z,7.20
2023-08-15T01:41:26.520Z,7.10
2023-08-15T01:42:03.017Z,7.50
2023-08-15T01:42:42.240Z,7.00
2023-08-15T01:43:18.050Z,7.40
2023-08-15T01:43:55.941Z,7.60
2023-08-15T01:44:31.950Z,7.20
2023-08-15T01:45:06.201Z,7.60
2023-08-15T01:45:39.766Z,7.70
2023-08-15T01:46:15.507Z,7.60
2023-08-15T01:46:49.236Z,7.20
2023-08-15T01:47:24.948Z,7.90
2023-08-15T01:47:59.234Z,7.70
2023-08-15T01:48:32.734Z,7.30
2023-08-15T01:51:16.902Z,8.00
2023-08-15T01:51:52.068Z,8.00
2023-08-15T01:52:25.406Z,7.40
2023-08-15T01:52:58.766Z,7.60
2023-08-15T01:53:31.995Z,7.20
2023-08-15T01:54:05.394Z,7.20
2023-08-15T01:54:38.681Z,7.20
2023-08-15T01:55:12.325Z,6.80
2023-08-15T01:55:45.592Z,7.50
2023-08-15T01:56:18.829Z,6.90
2023-08-15T01:56:52.678Z,7.30
2023-08-15T01:57:26.054Z,7.00
2023-08-15T01:58:00.156Z,6.80
2023-08-15T01:58:33.487Z,6.70
2023-08-15T01:59:07.773Z,6.90
2023-08-15T01:59:41.022Z,6.60
2023-08-15T02:00:14.513Z,6.80
2023-08-15T02:00:50.477Z,7.00
2023-08-15T02:01:23.766Z,7.70
2023-08-15T02:01:57.141Z,7.60
2023-08-15T02:02:30.646Z,7.40
2023-08-15T02:03:04.496Z,7.50
2023-08-15T02:03:38.021Z,7.70
2023-08-15T02:04:11.277Z,7.80
2023-08-15T02:04:44.646Z,7.40
2023-08-15T02:05:18.426Z,7.10
2023-08-15T02:05:51.738Z,6.90
2023-08-15T02:06:27.127Z,7.00
2023-08-15T02:07:00.610Z,6.80
2023-08-15T02:07:33.915Z,6.70
2023-08-15T02:08:07.519Z,6.50
2023-08-15T02:08:40.877Z,6.60
2023-08-15T02:09:14.200Z,6.50
2023-08-15T02:09:47.493Z,6.40
2023-08-15T02:10:20.868Z,6.90
2023-08-15T02:10:55.350Z,7.20
2023-08-15T02:11:28.709Z,7.20
2023-08-15T02:12:02.355Z,7.30
2023-08-15T02:12:35.819Z,7.10
2023-08-15T02:13:09.157Z,6.90
2023-08-15T02:13:42.406Z,7.40
2023-08-15T02:14:15.718Z,7.80
2023-08-15T02:14:49.032Z,7.20
2023-08-15T02:15:22.425Z,7.10
2023-08-15T02:15:55.903Z,7.20
2023-08-15T02:16:29.397Z,7.60
2023-08-15T02:17:02.666Z,7.60
2023-08-15T02:17:36.246Z,7.40
2023-08-15T02:18:09.782Z,8.00
2023-08-15T02:18:43.300Z,7.80
2023-08-15T02:19:16.939Z,8.00
2023-08-15T02:19:50.564Z,8.00
2023-08-15T02:20:23.827Z,7.80
2023-08-15T02:20:57.398Z,8.10
2023-08-15T02:21:31.217Z,7.80
2023-08-15T02:22:04.628Z,7.70
2023-08-15T02:22:38.001Z,8.20
2023-08-15T02:23:13.145Z,7.60
2023-08-15T02:23:46.394Z,7.70
2023-08-15T02:24:19.779Z,7.30
2023-08-15T02:24:53.044Z,7.60
2023-08-15T02:25:26.375Z,7.40
2023-08-15T02:25:59.771Z,7.30
2023-08-15T02:26:37.101Z,6.90
2023-08-15T02:27:10.484Z,6.90
2023-08-15T02:27:43.788Z,7.40
2023-08-15T02:28:17.025Z,7.20
2023-08-15T02:28:50.237Z,7.40
2023-08-15T02:29:25.885Z,7.10
2023-08-15T02:29:59.334Z,7.40
2023-08-15T02:30:38.488Z,7.60
2023-08-15T02:31:12.440Z,7.80
2023-08-15T02:31:49.298Z,7.40
2023-08-15T02:32:22.569Z,7.80
2023-08-15T02:32:55.956Z,7.90
2023-08-15T02:33:29.222Z,7.50
2023-08-15T02:34:02.516Z,7.60
2023-08-15T02:34:35.883Z,7.60
2023-08-15T02:35:10.538Z,7.00
2023-08-15T02:35:43.709Z,7.70
2023-08-15T02:36:17.009Z,8.00
2023-08-15T02:36:50.610Z,7.60
2023-08-15T02:37:24.730Z,7.60
2023-08-15T02:37:58.079Z,7.60
2023-08-15T02:38:31.362Z,7.00
2023-08-15T02:39:05.062Z,6.90
2023-08-15T02:39:38.352Z,7.20
2023-08-15T02:40:11.855Z,6.90
2023-08-15T02:40:45.175Z,7.30
2023-08-15T02:41:18.520Z,7.40
2023-08-15T02:41:52.749Z,7.10
2023-08-15T02:42:27.201Z,6.70
2023-08-15T02:43:00.496Z,7.10
2023-08-15T02:43:33.826Z,7.00
2023-08-15T02:44:07.168Z,7.50
2023-08-15T02:44:40.538Z,7.10
2023-08-15T02:45:13.830Z,7.00
2023-08-15T02:45:47.070Z,7.20
2023-08-15T02:46:21.282Z,7.30
2023-08-15T02:46:54.578Z,7.50
2023-08-15T02:47:28.097Z,7.40
2023-08-15T02:48:01.308Z,7.30
2023-08-15T02:48:36.342Z,7.60
2023-08-15T02:49:09.584Z,7.30
2023-08-15T02:49:42.832Z,7.40
2023-08-15T02:50:16.534Z,7.10
2023-08-15T02:50:49.962Z,7.30
2023-08-15T02:51:23.222Z,6.90
2023-08-15T02:51:56.685Z,6.70
2023-08-15T02:52:30.049Z,7.10
2023-08-15T02:53:03.437Z,7.80
2023-08-15T02:53:37.582Z,6.80
2023-08-15T02:54:10.960Z,7.10
2023-08-15T02:54:44.361Z,7.40
2023-08-15T02:55:17.789Z,7.00
2023-08-15T02:55:54.281Z,6.40
2023-08-15T02:56:27.665Z,6.60
2023-08-15T02:57:01.007Z,6.70
2023-08-15T02:57:34.673Z,6.80
2023-08-15T02:58:08.089Z,6.70
2023-08-15T02:58:42.191Z,6.90
2023-08-15T02:59:15.402Z,6.60
2023-08-15T02:59:48.664Z,6.70
2023-08-15T03:00:22.242Z,6.90
2023-08-15T03:00:55.646Z,6.70
2023-08-15T03:01:29.017Z,7.00
2023-08-15T03:02:03.718Z,7.10
2023-08-15T03:02:37.309Z,7.00
2023-08-15T03:03:11.142Z,6.90
2023-08-15T03:03:44.546Z,7.20
2023-08-15T03:04:17.864Z,6.60
2023-08-15T03:04:51.173Z,6.90
2023-08-15T03:05:24.365Z,6.80
2023-08-15T03:06:04.966Z,7.20
2023-08-15T03:06:38.744Z,7.10
2023-08-15T03:07:11.992Z,7.00
2023-08-15T03:07:45.293Z,7.10
2023-08-15T03:08:18.616Z,7.10
2023-08-15T03:08:51.903Z,7.10
2023-08-15T03:09:25.161Z,6.70
2023-08-15T03:09:58.445Z,7.00
2023-08-15T03:10:34.698Z,7.10
2023-08-15T03:11:08.031Z,6.80
2023-08-15T03:11:41.305Z,7.40
2023-08-15T03:12:14.609Z,7.10
2023-08-15T03:12:47.849Z,6.60
2023-08-15T03:13:21.098Z,6.80
2023-08-15T03:13:54.610Z,6.70
2023-08-15T03:14:30.831Z,6.70
2023-08-15T03:15:05.379Z,7.00
2023-08-15T03:15:39.135Z,7.10
2023-08-15T03:16:12.815Z,7.60
2023-08-15T03:16:46.239Z,7.10
2023-08-15T03:17:20.988Z,7.20
2023-08-15T03:17:55.552Z,7.30
2023-08-15T03:18:28.930Z,7.00
2023-08-15T03:19:02.226Z,6.50
2023-08-15T03:19:36.114Z,7.50
2023-08-15T03:20:10.611Z,7.00
2023-08-15T03:20:43.899Z,7.10
2023-08-15T03:21:17.987Z,6.90
2023-08-15T03:21:51.367Z,6.90
2023-08-15T03:22:24.735Z,7.10
2023-08-15T03:22:58.084Z,7.30
2023-08-15T03:23:32.033Z,6.90
2023-08-15T03:24:05.636Z,7.00
2023-08-15T03:24:39.468Z,7.30
2023-08-15T03:25:12.830Z,7.50
2023-08-15T03:25:46.030Z,6.90
2023-08-15T03:26:19.531Z,7.00
2023-08-15T03:26:52.929Z,7.30
2023-08-15T03:27:26.259Z,7.00
2023-08-15T03:27:59.528Z,6.90
2023-08-15T03:28:35.326Z,6.70
2023-08-15T03:29:08.691Z,6.80
2023-08-15T03:29:42.012Z,7.70
2023-08-15T03:30:15.397Z,6.90
2023-08-15T03:30:48.877Z,7.10
2023-08-15T03:31:23.300Z,7.00
2023-08-15T03:32:01.210Z,7.60
2023-08-15T03:32:36.615Z,7.30
2023-08-15T03:33:10.314Z,7.80
2023-08-15T03:33:43.645Z,7.10
2023-08-15T03:34:17.417Z,7.50
2023-08-15T03:34:51.122Z,7.20
2023-08-15T03:35:25.012Z,7.10
2023-08-15T03:35:58.374Z,7.10
2023-08-15T03:36:31.679Z,7.20
2023-08-15T03:37:05.186Z,7.20
2023-08-15T03:37:38.448Z,7.10
2023-08-15T03:38:11.957Z,7.30
2023-08-15T03:38:45.364Z,7.20
2023-08-15T03:39:18.694Z,6.90
2023-08-15T03:39:51.999Z,7.00
2023-08-15T03:40:25.343Z,6.90
2023-08-15T03:41:06.575Z,7.40
2023-08-15T03:41:39.756Z,7.20
2023-08-15T03:42:12.993Z,6.70
2023-08-15T03:42:46.243Z,7.10
2023-08-15T03:43:19.427Z,7.10
2023-08-15T03:43:52.729Z,6.80
2023-08-15T03:44:26.008Z,6.50
2023-08-15T03:44:59.390Z,7.10
2023-08-15T03:45:32.878Z,6.50
2023-08-15T03:46:08.131Z,6.90
2023-08-15T03:46:42.192Z,6.80
2023-08-15T03:47:15.457Z,6.70
2023-08-15T03:47:51.193Z,6.80
2023-08-15T03:48:24.525Z,6.70
2023-08-15T03:48:57.878Z,6.90
2023-08-15T03:49:33.255Z,6.80
2023-08-15T03:50:06.747Z,7.10
2023-08-15T03:50:40.200Z,7.00
2023-08-15T03:51:22.778Z,6.90
2023-08-15T03:52:06.230Z,7.30
2023-08-15T03:52:39.626Z,7.10
2023-08-15T03:53:12.982Z,6.70
2023-08-15T03:53:47.496Z,7.00
2023-08-15T03:54:20.857Z,6.80
2023-08-15T03:54:54.265Z,6.70
2023-08-15T03:55:29.778Z,6.90
2023-08-15T03:56:03.170Z,7.30
2023-08-15T03:56:37.432Z,6.80
2023-08-15T03:57:10.730Z,6.90
2023-08-15T03:57:44.058Z,7.60
2023-08-15T03:58:18.555Z,6.80
2023-08-15T03:58:51.852Z,7.40
2023-08-15T03:59:25.101Z,7.20
2023-08-15T03:59:58.318Z,7.30
2023-08-15T04:00:31.658Z,7.10
2023-08-15T04:01:05.509Z,7.60
2023-08-15T04:01:39.052Z,7.30
2023-08-15T04:02:12.372Z,7.70
2023-08-15T04:02:46.446Z,7.40
2023-08-15T04:03:20.010Z,7.40
2023-08-15T04:03:53.424Z,7.10
2023-08-15T04:04:26.770Z,7.50
2023-08-15T04:05:00.136Z,6.90
2023-08-15T04:05:33.474Z,6.90
2023-08-15T04:06:06.729Z,6.90
2023-08-15T04:06:40.112Z,6.80
2023-08-15T04:07:13.367Z,7.20
2023-08-15T04:07:46.862Z,7.00
2023-08-15T04:08:20.164Z,6.60
2023-08-15T04:08:53.505Z,6.70
2023-08-15T04:09:27.967Z,7.20
2023-08-15T04:10:01.369Z,7.10
2023-08-15T04:10:40.913Z,6.50
2023-08-15T04:11:14.387Z,6.80
2023-08-15T04:11:48.862Z,6.30
2023-08-15T04:12:22.085Z,7.00
2023-08-15T04:12:56.103Z,6.90
2023-08-15T04:13:29.444Z,6.80
2023-08-15T04:14:02.786Z,6.50
2023-08-15T04:14:36.165Z,6.70
2023-08-15T04:15:10.111Z,6.70
2023-08-15T04:15:43.466Z,6.60
2023-08-15T04:16:16.922Z,6.60
2023-08-15T04:16:50.213Z,6.60
2023-08-15T04:17:23.835Z,6.60
2023-08-15T04:17:57.277Z,6.80
2023-08-15T04:18:30.653Z,6.60
2023-08-15T04:19:04.164Z,6.80
2023-08-15T04:19:37.664Z,6.80
2023-08-15T04:20:13.662Z,6.70
2023-08-15T04:20:49.307Z,6.60
2023-08-15T04:21:22.582Z,7.20
2023-08-15T04:21:55.901Z,7.00
2023-08-15T04:22:29.226Z,7.50
2023-08-15T04:23:04.183Z,6.60
2023-08-15T04:23:37.418Z,7.10
2023-08-15T04:24:10.737Z,7.00
2023-08-15T04:24:44.164Z,7.00
2023-08-15T04:25:17.971Z,6.80
2023-08-15T04:25:51.346Z,7.10
2023-08-15T04:26:24.952Z,7.40
2023-08-15T04:27:00.863Z,6.70
2023-08-15T04:27:34.360Z,7.10
2023-08-15T04:28:08.299Z,6.80
2023-08-15T04:28:42.917Z,6.80
2023-08-15T04:29:16.270Z,6.90
2023-08-15T04:29:49.565Z,6.90
2023-08-15T04:30:23.009Z,6.60
2023-08-15T04:30:56.370Z,6.90
2023-08-15T04:31:29.753Z,7.00
2023-08-15T04:32:03.207Z,6.60
2023-08-15T04:32:37.161Z,6.70
2023-08-15T04:33:10.622Z,7.20
2023-08-15T04:33:43.991Z,6.70
2023-08-15T04:34:17.479Z,6.60
2023-08-15T04:34:50.725Z,7.40
2023-08-15T04:35:25.914Z,7.20
2023-08-15T04:35:59.299Z,7.00
2023-08-15T04:36:32.554Z,6.70
2023-08-15T04:37:06.266Z,6.60
2023-08-15T04:37:39.896Z,7.20
2023-08-15T04:38:15.762Z,6.70
2023-08-15T04:38:49.119Z,6.90
2023-08-15T04:39:23.048Z,6.90
2023-08-15T04:39:56.500Z,6.50
2023-08-15T04:40:35.337Z,6.70
2023-08-15T04:41:08.761Z,6.70
2023-08-15T04:41:43.347Z,7.10
2023-08-15T04:42:17.171Z,6.90
2023-08-15T04:42:51.712Z,6.80
2023-08-15T04:43:25.101Z,6.70
2023-08-15T04:43:58.875Z,6.60
2023-08-15T04:44:33.115Z,6.90
2023-08-15T04:45:06.845Z,7.00
2023-08-15T04:45:45.376Z,6.80
2023-08-15T04:46:19.334Z,6.80
2023-08-15T04:46:52.791Z,6.60
2023-08-15T04:47:26.152Z,6.90
2023-08-15T04:47:59.827Z,7.10
2023-08-15T04:48:33.284Z,6.70
2023-08-15T04:49:06.636Z,6.90
2023-08-15T04:49:40.189Z,6.80
2023-08-15T04:50:13.690Z,6.80
2023-08-15T04:50:47.256Z,7.10
2023-08-15T04:51:20.619Z,7.10
2023-08-15T04:51:53.993Z,7.30
2023-08-15T04:52:27.384Z,6.80
2023-08-15T04:53:00.821Z,7.00
2023-08-15T04:53:34.203Z,6.80
2023-08-15T04:54:09.147Z,7.20
2023-08-15T04:54:42.454Z,7.00
2023-08-15T04:55:16.087Z,7.90
2023-08-15T04:55:49.422Z,8.10
2023-08-15T04:56:23.908Z,7.80
2023-08-15T04:56:57.216Z,8.70
2023-08-15T04:57:30.447Z,9.50
2023-08-15T04:58:04.254Z,9.00
2023-08-15T04:58:37.552Z,9.10
2023-08-15T04:59:10.778Z,9.40
2023-08-15T04:59:44.144Z,9.00
2023-08-15T05:00:20.534Z,9.10
2023-08-15T05:00:54.944Z,8.40
2023-08-15T05:01:28.279Z,8.40
2023-08-15T05:02:01.601Z,8.30
2023-08-15T05:02:35.504Z,7.90
2023-08-15T05:03:09.212Z,8.20
2023-08-15T05:03:42.725Z,8.20
2023-08-15T05:04:16.096Z,7.80
2023-08-15T05:04:49.446Z,8.00
2023-08-15T05:05:22.896Z,8.20
2023-08-15T05:05:56.470Z,8.00
2023-08-15T05:06:29.875Z,7.40
2023-08-15T05:07:03.298Z,7.30
2023-08-15T05:07:37.360Z,7.70
2023-08-15T05:08:10.704Z,7.10
2023-08-15T05:08:44.025Z,7.30
2023-08-15T05:09:18.595Z,7.70
2023-08-15T05:09:51.776Z,7.80
2023-08-15T05:10:25.010Z,7.60
2023-08-15T05:10:58.336Z,7.10
2023-08-15T05:11:31.868Z,7.20
2023-08-15T05:12:05.393Z,7.20
2023-08-15T05:12:38.780Z,7.30
2023-08-15T05:13:12.198Z,7.10
2023-08-15T05:13:45.604Z,6.90
2023-08-15T05:14:18.875Z,7.30
2023-08-15T05:14:52.164Z,7.40
2023-08-15T05:15:25.490Z,7.80
2023-08-15T05:15:58.866Z,7.10
2023-08-15T05:16:32.260Z,7.20
2023-08-15T05:17:05.894Z,7.00
2023-08-15T05:17:39.324Z,7.30
2023-08-15T05:18:16.755Z,7.40
2023-08-15T05:18:50.174Z,7.00
2023-08-15T05:19:23.784Z,7.30
2023-08-15T05:19:56.990Z,7.10
2023-08-15T05:20:31.214Z,7.20
2023-08-15T05:21:04.626Z,7.50
2023-08-15T05:21:38.150Z,7.40
2023-08-15T05:22:11.434Z,7.70
2023-08-15T05:22:45.812Z,7.00
2023-08-15T05:23:21.191Z,7.50
2023-08-15T05:23:54.892Z,7.40
2023-08-15T05:24:28.448Z,7.60
2023-08-15T05:25:02.391Z,7.60
2023-08-15T05:25:36.661Z,7.60
2023-08-15T05:26:10.606Z,7.50
2023-08-15T05:26:44.135Z,7.90
2023-08-15T05:27:17.458Z,7.70
2023-08-15T05:27:51.993Z,7.40
2023-08-15T05:28:25.300Z,7.80
2023-08-15T05:28:58.600Z,7.60
2023-08-15T05:29:35.196Z,7.80
2023-08-15T05:30:09.383Z,8.00
2023-08-15T05:30:43.854Z,8.10
2023-08-15T05:31:17.173Z,7.90
2023-08-15T05:31:50.507Z,7.70
2023-08-15T05:32:23.797Z,7.80
2023-08-15T05:32:57.130Z,7.20
2023-08-15T05:33:30.970Z,7.70
2023-08-15T05:34:04.543Z,7.30
2023-08-15T05:34:37.996Z,7.70
2023-08-15T05:35:11.867Z,7.60
2023-08-15T05:35:45.245Z,7.50
2023-08-15T05:36:18.556Z,7.40
2023-08-15T05:36:52.490Z,7.30
2023-08-15T05:37:25.823Z,7.10
2023-08-15T05:37:59.610Z,7.30
2023-08-15T05:38:32.899Z,7.80
2023-08-15T05:39:06.353Z,7.50
2023-08-15T05:39:40.606Z,7.60
2023-08-15T05:40:13.969Z,7.30
2023-08-15T05:40:47.253Z,7.60
2023-08-15T05:41:20.438Z,7.70
2023-08-15T05:41:53.769Z,7.70
2023-08-15T05:42:27.152Z,7.80
2023-08-15T05:43:00.663Z,8.00
2023-08-15T05:43:34.014Z,7.90
2023-08-15T05:44:07.459Z,8.00
2023-08-15T05:44:40.721Z,8.20
2023-08-15T05:45:15.846Z,8.70
2023-08-15T05:45:50.166Z,8.00
2023-08-15T05:46:23.492Z,8.10
2023-08-15T05:46:56.812Z,8.50
2023-08-15T05:47:30.287Z,7.90
2023-08-15T05:48:05.375Z,8.40
2023-08-15T05:48:39.821Z,8.10
2023-08-15T05:49:13.059Z,8.40
2023-08-15T05:49:46.454Z,8.40
2023-08-15T05:50:19.723Z,8.50
2023-08-15T05:50:53.053Z,8.10
2023-08-15T05:51:26.472Z,8.50
2023-08-15T05:52:01.403Z,8.40
2023-08-15T05:52:35.114Z,8.20
2023-08-15T05:53:08.318Z,8.00
2023-08-15T05:53:41.863Z,8.10
2023-08-15T05:54:15.203Z,8.40
2023-08-15T05:54:48.402Z,8.20
2023-08-15T05:55:21.699Z,7.90
2023-08-15T05:55:54.981Z,7.40
2023-08-15T05:56:28.263Z,8.20
2023-08-15T05:57:01.537Z,7.80
2023-08-15T05:57:35.049Z,7.50
2023-08-15T05:58:08.355Z,7.60
2023-08-15T05:58:41.625Z,8.10
2023-08-15T05:59:14.849Z,8.00
2023-08-15T05:59:48.105Z,7.90
2023-08-15T06:00:21.422Z,7.40
2023-08-15T06:00:55.386Z,8.00
2023-08-15T06:01:28.833Z,7.80
2023-08-15T06:02:02.137Z,8.10
2023-08-15T06:02:37.904Z,7.80
2023-08-15T06:03:11.866Z,8.00
2023-08-15T06:03:52.473Z,8.10
2023-08-15T06:04:26.648Z,7.90
2023-08-15T06:05:00.116Z,8.40
2023-08-15T06:05:33.567Z,8.40
2023-08-15T06:06:07.019Z,8.50
2023-08-15T06:06:40.375Z,8.10
2023-08-15T06:07:16.658Z,7.90
2023-08-15T06:07:49.966Z,7.60
2023-08-15T06:08:59.343Z,7.70
2023-08-15T06:09:32.658Z,8.00
2023-08-15T06:10:07.154Z,8.70
2023-08-15T06:10:40.457Z,8.00
2023-08-15T06:11:13.818Z,8.60
2023-08-15T06:11:47.272Z,8.00
2023-08-15T06:12:20.608Z,8.60
2023-08-15T06:12:54.085Z,8.60
2023-08-15T06:13:27.592Z,8.50
2023-08-15T06:14:00.945Z,8.80
2023-08-15T06:14:35.794Z,8.60
2023-08-15T06:15:09.382Z,8.60
2023-08-15T06:15:42.699Z,8.20
2023-08-15T06:16:16.036Z,8.40
2023-08-15T06:16:49.881Z,8.10
2023-08-15T06:17:23.491Z,8.10
2023-08-15T06:17:57.088Z,7.70
2023-08-15T06:18:30.406Z,6.80
2023-08-15T06:19:03.741Z,7.30
2023-08-15T06:19:37.365Z,6.20
2023-08-15T06:20:11.671Z,6.10
2023-08-15T06:20:45.529Z,5.80
2023-08-15T06:21:18.842Z,5.30
2023-08-15T06:21:52.271Z,5.40
2023-08-15T06:22:25.620Z,4.70
2023-08-15T06:22:58.988Z,5.10
2023-08-15T06:23:32.377Z,5.50
2023-08-15T06:24:06.046Z,5.20
2023-08-15T06:24:39.476Z,5.40
2023-08-15T06:25:13.125Z,5.50
2023-08-15T06:25:46.632Z,4.70
2023-08-15T06:26:20.064Z,4.60
2023-08-15T06:26:53.412Z,4.60
2023-08-15T06:27:26.844Z,4.60
2023-08-15T06:28:00.056Z,4.90
2023-08-15T06:28:33.504Z,4.60
2023-08-15T06:29:07.363Z,4.30
2023-08-15T06:29:40.701Z,4.50
2023-08-15T06:30:14.453Z,4.60
2023-08-15T06:30:47.850Z,4.60
2023-08-15T06:31:21.282Z,4.80
2023-08-15T06:31:55.146Z,4.60
2023-08-15T06:32:29.773Z,4.20
2023-08-15T06:33:03.182Z,4.10
2023-08-15T06:33:36.794Z,4.20
2023-08-15T06:34:10.624Z,4.10
2023-08-15T06:34:43.896Z,4.10
2023-08-15T06:35:17.174Z,3.80
2023-08-15T06:35:50.376Z,4.10
2023-08-15T06:36:23.839Z,4.00
2023-08-15T06:36:57.205Z,4.00
2023-08-15T06:37:30.565Z,4.00
2023-08-15T06:38:03.897Z,4.00
2023-08-15T06:38:37.448Z,4.10
2023-08-15T06:39:10.688Z,4.00
2023-08-15T06:39:43.965Z,3.80
2023-08-15T06:40:17.340Z,3.90
2023-08-15T06:40:51.033Z,3.70
2023-08-15T06:41:24.278Z,4.00
2023-08-15T06:41:58.146Z,3.40
2023-08-15T06:42:31.326Z,3.70
2023-08-15T06:43:04.886Z,3.40
2023-08-15T06:43:38.215Z,3.90
2023-08-15T06:44:11.531Z,3.30
2023-08-15T06:44:45.067Z,3.40
2023-08-15T06:45:20.399Z,3.90
2023-08-15T06:45:53.626Z,3.40
2023-08-15T06:46:26.908Z,3.30
2023-08-15T06:47:00.616Z,3.20
2023-08-15T06:47:33.880Z,3.70
2023-08-15T06:48:07.542Z,3.50
2023-08-15T06:48:40.949Z,3.20
2023-08-15T06:49:15.412Z,3.30
2023-08-15T06:49:48.810Z,3.40
2023-08-15T06:50:22.361Z,3.30
2023-08-15T06:50:55.621Z,3.30
2023-08-15T06:51:29.207Z,3.20
2023-08-15T06:52:02.537Z,3.30
2023-08-15T06:52:36.420Z,3.50
2023-08-15T06:53:09.642Z,3.10
2023-08-15T06:53:46.109Z,3.20
2023-08-15T06:54:19.405Z,3.20
2023-08-15T06:54:52.711Z,3.10
2023-08-15T06:55:26.555Z,3.20
2023-08-15T06:56:00.015Z,3.20
2023-08-15T06:56:33.348Z,3.00
2023-08-15T06:57:08.694Z,2.90
2023-08-15T06:57:42.001Z,3.20
2023-08-15T06:58:15.282Z,2.90
2023-08-15T06:58:48.600Z,3.00
2023-08-15T06:59:24.969Z,3.00
2023-08-15T06:59:58.341Z,2.70
2023-08-15T07:00:31.694Z,2.90
2023-08-15T07:01:06.389Z,2.90
2023-08-15T07:01:47.729Z,2.90
2023-08-15T07:02:22.454Z,3.00
2023-08-15T07:02:55.726Z,2.70
2023-08-15T07:03:29.363Z,2.90
2023-08-15T07:04:02.982Z,2.90
2023-08-15T07:04:41.593Z,2.80
2023-08-15T07:05:15.127Z,2.80
2023-08-15T07:05:48.615Z,2.70
2023-08-15T07:06:21.976Z,2.90
2023-08-15T07:06:58.321Z,2.90
2023-08-15T07:07:31.842Z,2.90
2023-08-15T07:08:06.227Z,2.80
2023-08-15T07:08:39.697Z,2.40
2023-08-15T07:09:13.025Z,2.90
2023-08-15T07:09:47.858Z,2.50
2023-08-15T07:10:21.607Z,2.70
2023-08-15T07:10:58.143Z,2.60
2023-08-15T07:11:31.468Z,2.60
2023-08-15T07:12:06.366Z,2.80
2023-08-15T07:12:39.940Z,2.80
2023-08-15T07:13:13.541Z,2.70
2023-08-15T07:13:47.026Z,2.70
2023-08-15T07:14:20.337Z,2.60
2023-08-15T07:14:53.909Z,2.60
2023-08-15T07:15:27.470Z,2.80
2023-08-15T07:16:00.953Z,2.90
2023-08-15T07:16:34.566Z,2.60
2023-08-15T07:17:08.069Z,2.50
2023-08-15T07:17:41.893Z,2.50
2023-08-15T07:18:15.212Z,2.80
2023-08-15T07:19:21.880Z,2.60
2023-08-15T07:19:55.236Z,2.60
2023-08-15T07:20:31.364Z,2.50
2023-08-15T07:21:07.642Z,2.30
2023-08-15T07:21:42.813Z,2.50
2023-08-15T07:22:16.266Z,2.70
2023-08-15T07:22:49.611Z,2.60
2023-08-15T07:23:22.996Z,2.50
2023-08-15T07:23:56.616Z,2.50
2023-08-15T07:24:29.961Z,2.70
2023-08-15T07:25:03.363Z,2.60
2023-08-15T07:25:41.932Z,2.40
2023-08-15T07:26:15.353Z,2.50
2023-08-15T07:26:48.928Z,2.60
2023-08-15T07:27:22.272Z,2.60
2023-08-15T07:27:55.621Z,2.70
2023-08-15T07:28:29.773Z,2.70
2023-08-15T07:29:03.241Z,2.60
2023-08-15T07:29:36.743Z,2.70
2023-08-15T07:30:12.970Z,2.60
2023-08-15T07:30:50.126Z,2.70
2023-08-15T07:31:23.573Z,2.70
2023-08-15T07:31:56.926Z,2.70
2023-08-15T07:32:30.469Z,2.50
2023-08-15T07:33:04.236Z,2.50
2023-08-15T07:33:37.675Z,2.80
2023-08-15T07:34:11.072Z,2.70
2023-08-15T07:34:44.359Z,2.70
2023-08-15T07:35:17.837Z,2.70
2023-08-15T07:35:51.159Z,2.70
2023-08-15T07:36:25.048Z,2.40
2023-08-15T07:36:58.387Z,2.50
2023-08-15T07:37:32.191Z,2.70
2023-08-15T07:38:05.496Z,2.60
2023-08-15T07:38:38.859Z,2.40
2023-08-15T07:39:12.131Z,2.40
2023-08-15T07:39:45.587Z,2.50
2023-08-15T07:40:23.634Z,2.60
2023-08-15T07:40:56.934Z,2.50